Terminal Aerodrome Forecast
Issued by NWS Wakefield, VA

Home | Current Version | Previous Version | Text Only | Print | Product List | Glossary On
Versions: 1 2 3 4 5 6 7 8 9 10 11 12 13 14 15 16 17 18 19
000
FTUS41 KAKQ 022332
TAFRIC
TAF
KRIC 022332Z 0300/0324 18003KT P6SM VCTS FEW060CB SCT140 BKN250
      TEMPO 0300/0301 4SM -SHRA BR BKN040
     FM030200 VRB03KT 4SM BR SCT100 BKN250
     FM030600 00000KT 2SM BR SCT250
     FM031300 34005KT P6SM BKN250=

USA.gov is the U.S. government's official web portal to all federal, state and local government web resources and services.